Cap-Chat, Canada
Current Conditions -  °F | °C
As of 3:10 AM on Monday 22 Dec 2014 (Local Time) from CYBC Reporting Station
Light Snow Light Snow  
Wind Chill: 19°   Ceiling: 1500
Heat Index: 19°   Visibility: 9mi
Dew Point: 14°   Wind: 3mph
Humidity: 80%   Direction: 340°NNW
Pressure: 30.43"   Gusts: NA
Location:  49.08°N, 66.68°W
Report Text: CYBC 220710Z AUTO 34003KT 290V360 9SM -SN OVC015 M07/M10 A3043 RMK SLP306
Loading
Personal Weather Stations






























Interactive Weather Map New forecast layout! Learn more

10-Day Weather Forecast

Advertisements
Track Severe Weather on mobile